Time;durP1;ratioP1;P1;durP2;ratioP2;P2;SDS_P1;SDS_P2;PMS_P1;PMS_P2;Temp;Humidity;BMP_temperature;BMP_pressure;BME280_temperature;BME280_humidity;BME280_pressure;Samples;Min_cycle;Max_cycle;Signal;HPM_P1;HPM_P2
2022/10/20 00:03:54;;;;;;;59.28;47.28;;;22.90;58.30;;;;;;4807541;55;21065;-29
2022/10/20 00:08:56;;;;;;;59.38;49.72;;;22.90;58.20;;;;;;4746590;55;20994;-28
2022/10/20 00:13:58;;;;;;;59.92;49.72;;;22.80;58.20;;;;;;4800149;55;21014;-27
2022/10/20 00:18:59;;;;;;;61.37;49.72;;;22.90;58.20;;;;;;4751457;55;21006;-29
2022/10/20 00:24:01;;;;;;;60.03;49.05;;;22.80;58.20;;;;;;4738143;59;20998;-29
2022/10/20 00:29:03;;;;;;;58.78;48.50;;;22.80;58.10;;;;;;4776312;55;21090;-28
2022/10/20 00:34:03;;;;;;;59.22;47.45;;;22.90;58.20;;;;;;4764647;55;21061;-29
2022/10/20 00:39:05;;;;;;;58.58;46.95;;;22.80;58.20;;;;;;4767754;55;21001;-26
2022/10/20 00:44:44;;;;;;;56.47;46.65;;;22.90;58.10;;;;;;4741376;55;21021;-26
2022/10/20 00:49:46;;;;;;;54.72;46.08;;;22.90;58.10;;;;;;4757159;55;21129;-28
2022/10/20 00:54:48;;;;;;;55.00;44.90;;;22.80;58.10;;;;;;4737459;59;21037;-33
2022/10/20 00:59:49;;;;;;;54.63;45.17;;;22.80;58.10;;;;;;4754567;55;21077;-27
2022/10/20 01:04:51;;;;;;;51.78;44.17;;;22.80;58.00;;;;;;4754506;55;21149;-31
2022/10/20 01:09:53;;;;;;;53.35;44.50;;;22.80;58.00;;;;;;4738537;59;21619;-27
2022/10/20 01:15:19;;;;;;;50.55;42.25;;;22.80;58.00;;;;;;4751330;55;21082;-28
2022/10/20 01:21:38;;;;;;;51.40;42.33;;;22.80;58.10;;;;;;4742899;55;20992;-26
2022/10/20 01:29:56;;;;;;;53.67;43.15;;;22.80;57.90;;;;;;4758768;55;21512;-30
2022/10/20 01:35:12;;;;;;;52.30;42.15;;;22.80;57.90;;;;;;4779219;55;21018;-29
2022/10/20 01:40:30;;;;;;;49.77;41.33;;;22.80;58.00;;;;;;4738056;59;22308;-27
2022/10/20 01:45:34;;;;;;;49.30;40.90;;;22.80;58.00;;;;;;4753723;55;22072;-26
2022/10/20 01:50:37;;;;;;;46.42;38.55;;;22.80;58.00;;;;;;4753317;55;21047;-30
2022/10/20 01:55:39;;;;;;;45.97;38.15;;;22.80;58.00;;;;;;4765377;55;21005;-34
2022/10/20 02:00:42;;;;;;;46.20;38.42;;;22.70;57.90;;;;;;4744081;55;21061;-28
2022/10/20 02:07:10;;;;;;;46.10;38.45;;;22.80;58.00;;;;;;4767752;55;21066;-28
2022/10/20 02:12:28;;;;;;;44.92;37.42;;;22.70;57.90;;;;;;4747955;55;21006;-28
2022/10/20 02:17:29;;;;;;;45.12;36.35;;;22.80;58.40;;;;;;4737889;59;21034;-28
2022/10/20 02:22:31;;;;;;;44.00;37.10;;;22.70;57.90;;;;;;4748702;55;21661;-28
2022/10/20 02:27:36;;;;;;;41.78;36.05;;;22.80;57.90;;;;;;4752067;55;21057;-26
2022/10/20 02:32:40;;;;;;;44.72;37.03;;;22.70;57.90;;;;;;4786850;55;21046;-34
2022/10/20 02:37:41;;;;;;;42.13;35.35;;;22.70;57.80;;;;;;4752107;55;20997;-27
2022/10/20 02:42:42;;;;;;;42.92;36.08;;;22.70;57.90;;;;;;4768145;55;21026;-28
2022/10/20 02:47:43;;;;;;;43.58;35.90;;;22.70;57.90;;;;;;4768147;55;21535;-29
2022/10/20 02:52:44;;;;;;;41.40;34.75;;;22.80;57.90;;;;;;4748672;55;21109;-27
2022/10/20 02:57:45;;;;;;;40.60;33.05;;;22.70;57.80;;;;;;4741337;55;21014;-30
2022/10/20 03:02:47;;;;;;;40.80;34.35;;;22.80;57.90;;;;;;4750599;55;21014;-28
2022/10/20 03:07:47;;;;;;;39.97;33.15;;;22.80;57.90;;;;;;4739698;55;21515;-27
2022/10/20 03:12:48;;;;;;;40.67;34.55;;;22.80;58.00;;;;;;4763996;55;21113;-29
2022/10/20 03:17:49;;;;;;;38.47;32.47;;;22.80;57.90;;;;;;4749348;55;21041;-31
2022/10/20 03:22:50;;;;;;;37.70;31.55;;;22.80;58.00;;;;;;4743629;55;21007;-28
2022/10/20 03:27:51;;;;;;;38.75;32.08;;;22.80;57.90;;;;;;4740549;55;21025;-32
2022/10/20 03:32:51;;;;;;;36.20;30.42;;;22.70;57.90;;;;;;4737988;59;21023;-27
2022/10/20 03:37:52;;;;;;;35.65;30.33;;;22.80;57.90;;;;;;4822979;55;21054;-32
2022/10/20 03:42:53;;;;;;;35.72;31.02;;;22.80;57.90;;;;;;4737959;59;21499;-29
2022/10/20 03:47:54;;;;;;;35.72;29.95;;;22.80;58.00;;;;;;4744898;55;21001;-26
2022/10/20 03:52:55;;;;;;;35.90;28.83;;;22.70;57.70;;;;;;4770343;55;21002;-28
2022/10/20 03:57:56;;;;;;;38.17;30.45;;;22.70;57.90;;;;;;4740973;55;20998;-26
2022/10/20 04:02:57;;;;;;;36.20;29.73;;;22.70;57.90;;;;;;4751462;55;21010;-29
2022/10/20 04:07:58;;;;;;;36.08;30.02;;;22.70;57.80;;;;;;4770520;55;21002;-28
2022/10/20 04:13:02;;;;;;;33.25;28.73;;;22.70;57.80;;;;;;4793765;55;21500;-31
2022/10/20 04:18:03;;;;;;;33.28;27.92;;;22.70;57.90;;;;;;4752193;55;20994;-31
2022/10/20 04:23:04;;;;;;;32.95;28.02;;;22.70;57.80;;;;;;4764759;55;21026;-33
2022/10/20 04:28:05;;;;;;;32.88;27.13;;;22.70;57.80;;;;;;4737972;59;21074;-27
2022/10/20 04:33:05;;;;;;;32.53;27.65;;;22.70;57.90;;;;;;4737537;59;21022;-28
2022/10/20 04:38:07;;;;;;;31.15;25.95;;;22.70;57.70;;;;;;4739864;55;20982;-28
2022/10/20 04:43:08;;;;;;;29.70;25.77;;;22.70;57.70;;;;;;4742556;55;21057;-27
2022/10/20 04:48:09;;;;;;;29.12;25.90;;;22.70;57.70;;;;;;4743819;55;20994;-28
2022/10/20 04:53:11;;;;;;;32.50;26.23;;;22.70;57.70;;;;;;4737985;56;20998;-28
2022/10/20 04:58:11;;;;;;;30.67;26.42;;;22.70;57.70;;;;;;4786789;55;21054;-28
2022/10/20 05:03:13;;;;;;;28.92;25.62;;;22.70;57.70;;;;;;4743584;55;20990;-29
2022/10/20 05:08:14;;;;;;;29.63;25.88;;;22.70;57.60;;;;;;4738976;55;21049;-32
2022/10/20 05:13:14;;;;;;;30.75;26.40;;;22.90;57.70;;;;;;4738271;59;21002;-28
2022/10/20 05:18:15;;;;;;;29.60;24.98;;;22.60;57.50;;;;;;4743066;55;21061;-27
2022/10/20 05:23:16;;;;;;;30.45;24.65;;;22.60;58.20;;;;;;4740313;55;21061;-28
2022/10/20 05:28:17;;;;;;;29.05;24.08;;;22.60;57.50;;;;;;4744135;55;20979;-32
2022/10/20 05:33:17;;;;;;;27.75;23.42;;;22.60;57.40;;;;;;4736883;59;21037;-28
2022/10/20 05:38:21;;;;;;;28.70;24.73;;;22.60;57.40;;;;;;4799212;55;21014;-28
2022/10/20 05:43:22;;;;;;;29.05;24.63;;;22.60;57.40;;;;;;4770380;55;21014;-29
2022/10/20 05:48:25;;;;;;;29.27;23.80;;;22.60;57.40;;;;;;4748150;55;21464;-28
2022/10/20 05:53:26;;;;;;;28.65;24.08;;;22.60;57.40;;;;;;4772465;55;21026;-30
2022/10/20 05:58:27;;;;;;;28.02;24.42;;;22.60;57.40;;;;;;4763788;55;21018;-26
2022/10/20 06:03:28;;;;;;;27.55;23.55;;;22.60;57.30;;;;;;4738695;59;21026;-27
2022/10/20 06:08:33;;;;;;;28.40;23.23;;;22.60;57.30;;;;;;4739917;55;21041;-29
2022/10/20 06:13:34;;;;;;;27.40;23.70;;;22.60;57.30;;;;;;4753451;55;21106;-30
2022/10/20 06:18:37;;;;;;;26.33;22.50;;;22.60;57.20;;;;;;4759969;55;21527;-29
2022/10/20 06:23:38;;;;;;;30.12;24.30;;;22.60;57.30;;;;;;4738408;59;22468;-29
2022/10/20 06:28:40;;;;;;;28.15;23.95;;;22.60;57.30;;;;;;4766942;55;21141;-29
2022/10/20 06:33:41;;;;;;;27.90;24.02;;;22.60;57.20;;;;;;4758637;55;22319;-29
2022/10/20 06:38:43;;;;;;;29.33;24.20;;;22.60;57.30;;;;;;4754457;55;21025;-27
2022/10/20 06:43:44;;;;;;;27.87;24.10;;;22.60;57.30;;;;;;4754645;55;21006;-27
2022/10/20 06:48:48;;;;;;;31.40;24.12;;;22.60;57.20;;;;;;4755435;55;21149;-34
2022/10/20 06:53:50;;;;;;;28.48;23.52;;;22.60;57.10;;;;;;4736676;56;21022;-28
2022/10/20 06:58:52;;;;;;;28.33;24.02;;;22.70;57.10;;;;;;4786340;55;21046;-29
2022/10/20 07:03:56;;;;;;;34.40;26.05;;;22.70;56.90;;;;;;4756769;55;21057;-27
2022/10/20 07:08:58;;;;;;;36.17;27.48;;;22.80;56.70;;;;;;4759715;55;21022;-28
2022/10/20 07:14:00;;;;;;;38.03;29.42;;;22.80;56.60;;;;;;4766184;55;21101;-31
2022/10/20 07:19:02;;;;;;;42.30;32.95;;;22.90;56.40;;;;;;4790943;55;21002;-28
2022/10/20 07:24:05;;;;;;;42.25;33.08;;;22.90;56.20;;;;;;4781189;55;21006;-36
2022/10/20 07:29:06;;;;;;;50.55;36.13;;;22.90;56.00;;;;;;4738318;55;21018;-34
2022/10/20 07:34:09;;;;;;;47.17;36.50;;;23.00;56.00;;;;;;4738118;59;21504;-33
2022/10/20 07:39:12;;;;;;;48.42;35.60;;;23.00;55.80;;;;;;4757877;55;21484;-29
2022/10/20 07:44:12;;;;;;;52.70;37.78;;;23.00;55.60;;;;;;4743261;55;22212;-33
2022/10/20 07:49:13;;;;;;;55.90;38.78;;;23.00;55.50;;;;;;4755263;55;21081;-28
2022/10/20 07:54:14;;;;;;;52.35;38.08;;;23.10;55.50;;;;;;4776397;55;21659;-34
2022/10/20 07:59:15;;;;;;;49.10;36.28;;;23.10;55.20;;;;;;4756234;55;21065;-32
2022/10/20 08:04:16;;;;;;;59.65;42.78;;;23.00;55.30;;;;;;4754955;55;21036;-29
2022/10/20 08:09:17;;;;;;;61.15;42.28;;;23.00;54.80;;;;;;4756255;55;21209;-36
2022/10/20 08:14:18;;;;;;;55.20;39.92;;;23.00;54.70;;;;;;4735282;59;21481;-36
2022/10/20 08:19:22;;;;;;;59.85;42.88;;;23.10;54.50;;;;;;4772255;55;21074;-29
2022/10/20 08:24:24;;;;;;;61.00;41.42;;;23.10;54.50;;;;;;4762633;55;21005;-28
2022/10/20 08:29:24;;;;;;;58.83;43.42;;;23.10;54.40;;;;;;4749557;55;21041;-34
2022/10/20 08:34:25;;;;;;;60.65;44.03;;;23.10;54.50;;;;;;4776746;55;21658;-34
2022/10/20 08:39:26;;;;;;;66.72;46.85;;;23.20;54.50;;;;;;4758447;55;20994;-29
2022/10/20 08:44:31;;;;;;;67.25;46.67;;;23.30;54.60;;;;;;4747040;55;21037;-29
2022/10/20 08:49:33;;;;;;;65.53;47.40;;;23.20;54.30;;;;;;4772276;55;21030;-26
2022/10/20 08:54:34;;;;;;;68.97;48.38;;;23.20;54.00;;;;;;4777243;55;21069;-27
2022/10/20 08:59:37;;;;;;;67.20;48.67;;;23.20;54.50;;;;;;4773217;55;21037;-32
2022/10/20 09:04:53;;;;;;;64.37;48.65;;;23.30;54.60;;;;;;4762029;55;21106;-25
2022/10/20 09:13:27;;;;;;;62.83;45.05;;;23.30;54.50;;;;;;4739136;55;21055;-29
2022/10/20 09:18:30;;;;;;;63.83;47.97;;;23.40;55.50;;;;;;4740827;55;21085;-28
2022/10/20 09:23:45;;;;;;;70.00;48.55;;;23.20;56.80;;;;;;4759209;55;21009;-35
2022/10/20 09:28:51;;;;;;;66.93;50.55;;;23.20;55.60;;;;;;4745879;55;21049;-28
2022/10/20 09:33:51;;;;;;;75.70;51.35;;;23.20;54.90;;;;;;4737072;59;21029;-29
2022/10/20 09:38:52;;;;;;;83.82;62.83;;;23.20;54.90;;;;;;4781321;55;21041;-29
2022/10/20 09:43:57;;;;;;;80.32;58.78;;;23.10;50.10;;;;;;4745940;55;21006;-28
2022/10/20 09:48:58;;;;;;;84.35;58.97;;;23.10;52.00;;;;;;4737994;59;21002;-31
2022/10/20 09:54:13;;;;;;;95.82;65.00;;;23.10;51.90;;;;;;4738406;55;21093;-27
2022/10/20 09:59:31;;;;;;;99.90;66.53;;;23.00;49.20;;;;;;4737400;59;21105;-29
2022/10/20 10:04:35;;;;;;;87.88;61.60;;;23.00;48.90;;;;;;4738762;59;20990;-36
2022/10/20 10:09:37;;;;;;;85.85;59.40;;;23.00;48.80;;;;;;4788707;55;21014;-33
2022/10/20 10:14:52;;;;;;;86.75;57.03;;;23.00;49.00;;;;;;4736601;59;21030;-29
2022/10/20 10:19:52;;;;;;;70.93;49.72;;;23.00;47.80;;;;;;4768010;55;20994;-27
2022/10/20 10:24:54;;;;;;;78.37;54.17;;;22.90;48.70;;;;;;4741217;55;21484;-35
2022/10/20 10:32:08;;;;;;;83.30;56.45;;;22.90;47.70;;;;;;4738454;55;21034;-36
2022/10/20 10:37:14;;;;;;;83.85;56.92;;;22.90;47.90;;;;;;4738248;55;21049;-32
2022/10/20 10:44:04;;;;;;;89.40;60.30;;;22.90;47.90;;;;;;4770552;55;21516;-30
2022/10/20 10:51:11;;;;;;;85.30;54.25;;;23.00;48.00;;;;;;4788545;55;21535;-28
2022/10/20 10:56:44;;;;;;;81.57;50.53;;;22.90;48.60;;;;;;4751438;55;21007;-30
2022/10/20 11:04:01;;;;;;;79.12;48.55;;;23.00;48.70;;;;;;4754094;55;21033;-34
2022/10/20 11:10:52;;;;;;;77.12;48.35;;;23.10;49.40;;;;;;4738597;56;21022;-26
2022/10/20 11:16:36;;;;;;;73.50;46.40;;;23.20;50.10;;;;;;4737424;59;21152;-26
2022/10/20 11:24:58;;;;;;;72.62;45.47;;;23.20;50.60;;;;;;4747193;55;21062;-35
2022/10/20 11:30:15;;;;;;;65.25;43.50;;;23.30;50.80;;;;;;4773361;55;21090;-32
2022/10/20 11:35:56;;;;;;;70.18;46.63;;;23.20;50.00;;;;;;4782525;55;21448;-28
2022/10/20 11:41:21;;;;;;;70.82;47.25;;;23.20;49.90;;;;;;4743710;55;21034;-27
2022/10/20 11:46:34;;;;;;;70.47;46.92;;;23.20;50.00;;;;;;4780529;55;21006;-28
2022/10/20 11:52:34;;;;;;;71.85;48.63;;;23.20;50.00;;;;;;4738534;59;21074;-30
2022/10/20 11:58:06;;;;;;;72.05;50.25;;;23.10;49.90;;;;;;4748460;55;21054;-27
2022/10/20 12:04:02;;;;;;;72.12;49.00;;;23.10;49.70;;;;;;4738207;59;21053;-29
2022/10/20 12:09:48;;;;;;;63.70;48.45;;;23.20;50.00;;;;;;4759854;55;21021;-29
2022/10/20 12:14:55;;;;;;;;;;;23.20;50.20;;;;;;4758518;55;21049;-27
2022/10/20 12:20:47;;;;;;;64.27;46.07;;;23.30;50.50;;;;;;4753835;55;20085;-27
2022/10/20 12:25:48;;;;;;;66.62;46.90;;;23.30;50.60;;;;;;4740191;55;21030;-28
2022/10/20 12:30:58;;;;;;;65.43;46.90;;;23.30;50.90;;;;;;4737733;59;21045;-32
2022/10/20 12:36:25;;;;;;;66.25;46.60;;;23.30;51.10;;;;;;4740360;55;21728;-34
2022/10/20 12:41:29;;;;;;;59.90;45.12;;;23.40;51.20;;;;;;4743767;55;21105;-35
2022/10/20 12:46:32;;;;;;;61.80;45.17;;;23.40;51.40;;;;;;4759638;55;21129;-27
2022/10/20 12:51:37;;;;;;;62.53;45.45;;;23.40;51.30;;;;;;4746100;55;21067;-27
2022/10/20 12:56:39;;;;;;;67.60;46.15;;;23.40;51.70;;;;;;4750478;55;21042;-32
2022/10/20 13:02:59;;;;;;;67.03;46.55;;;23.40;51.90;;;;;;4752184;55;21543;-34
2022/10/20 13:08:15;;;;;;;67.30;46.65;;;23.40;52.00;;;;;;4779294;55;20994;-30
2022/10/20 13:13:46;;;;;;;63.67;45.60;;;23.50;51.90;;;;;;4754775;55;21978;-30
2022/10/20 13:18:49;;;;;;;65.57;46.37;;;23.50;52.20;;;;;;4740148;55;21057;-30
2022/10/20 13:23:59;;;;;;;73.35;48.05;;;23.50;51.90;;;;;;4786116;55;21077;-41
2022/10/20 13:29:01;;;;;;;72.72;50.67;;;23.50;52.20;;;;;;4739013;55;21082;-37
2022/10/20 13:37:24;;;;;;;71.37;50.97;;;23.50;51.80;;;;;;4739665;55;21054;-25
2022/10/20 13:43:00;;;;;;;71.40;49.00;;;23.50;51.80;;;;;;4737875;59;21459;-31
2022/10/20 13:51:22;;;;;;;70.37;49.50;;;23.50;51.90;;;;;;4779937;55;21073;-38
2022/10/20 13:56:44;;;;;;;76.45;50.78;;;23.50;52.00;;;;;;4750394;55;21047;-33
2022/10/20 14:02:02;;;;;;;68.65;47.97;;;23.70;52.20;;;;;;4765998;55;20982;-37
2022/10/20 14:07:12;;;;;;;72.82;49.92;;;23.60;52.20;;;;;;4748430;55;21582;-28
2022/10/20 14:12:24;;;;;;;66.70;50.15;;;23.60;52.30;;;;;;4792953;55;21606;-28
2022/10/20 14:17:25;;;;;;;69.10;48.75;;;23.70;52.40;;;;;;4747776;55;21002;-28
2022/10/20 14:22:26;;;;;;;72.37;52.42;;;23.60;52.30;;;;;;4738397;59;21491;-28
2022/10/20 14:27:32;;;;;;;70.50;50.83;;;23.60;52.50;;;;;;4767511;55;21009;-29
2022/10/20 14:32:39;;;;;;;66.97;48.55;;;23.60;52.30;;;;;;4740883;55;21039;-30
2022/10/20 14:37:45;;;;;;;66.18;47.95;;;23.60;53.20;;;;;;4743688;55;21500;-34
2022/10/20 14:42:46;;;;;;;70.60;48.63;;;23.60;52.80;;;;;;4739060;55;21021;-43
2022/10/20 14:47:48;;;;;;;66.87;47.15;;;23.50;52.90;;;;;;4756497;55;21018;-28
2022/10/20 14:52:49;;;;;;;66.40;46.37;;;23.50;53.20;;;;;;4736593;59;21236;-31
2022/10/20 14:57:50;;;;;;;67.20;48.22;;;23.40;53.30;;;;;;4782947;55;21073;-33
2022/10/20 15:02:55;;;;;;;60.88;46.97;;;23.40;53.40;;;;;;4743530;55;21468;-30
2022/10/20 15:07:57;;;;;;;60.38;46.55;;;23.30;53.40;;;;;;4738019;59;21049;-39
2022/10/20 15:12:58;;;;;;;59.40;46.58;;;23.30;53.50;;;;;;4773506;55;21069;-40
2022/10/20 15:18:13;;;;;;;63.25;45.80;;;23.30;53.50;;;;;;4737420;59;21038;-35
2022/10/20 15:23:25;;;;;;;58.20;43.87;;;23.30;53.60;;;;;;4761541;55;21168;-36
2022/10/20 15:29:26;;;;;;;57.75;44.25;;;23.20;53.60;;;;;;4739174;55;21058;-37
2022/10/20 15:34:27;;;;;;;63.60;45.08;;;23.20;53.60;;;;;;4754378;55;21050;-44
2022/10/20 15:39:28;;;;;;;62.50;45.97;;;23.20;53.70;;;;;;4745806;55;21491;-41
2022/10/20 15:44:29;;;;;;;57.72;43.30;;;23.20;53.80;;;;;;4745847;55;21446;-36
2022/10/20 15:49:30;;;;;;;58.47;43.92;;;23.20;53.80;;;;;;4746193;55;21552;-29
2022/10/20 15:54:31;;;;;;;55.47;44.03;;;23.20;53.90;;;;;;4759358;55;21114;-32
2022/10/20 15:59:32;;;;;;;57.92;44.53;;;23.10;53.80;;;;;;4738065;59;21021;-34
2022/10/20 16:04:33;;;;;;;61.60;46.17;;;23.10;53.80;;;;;;4738321;55;21504;-29
2022/10/20 16:09:34;;;;;;;56.95;43.40;;;23.10;53.90;;;;;;4747712;55;21467;-39
2022/10/20 16:14:36;;;;;;;55.45;44.03;;;23.10;54.00;;;;;;4740437;55;21054;-33
2022/10/20 16:19:37;;;;;;;60.03;45.05;;;23.10;54.00;;;;;;4738512;59;21631;-34
2022/10/20 16:24:38;;;;;;;57.65;44.75;;;23.10;54.00;;;;;;4752859;55;20998;-35
2022/10/20 16:29:39;;;;;;;55.88;43.00;;;23.10;54.00;;;;;;4738054;55;21058;-37
2022/10/20 16:34:40;;;;;;;55.50;42.72;;;23.10;54.00;;;;;;4747687;55;21475;-34
2022/10/20 16:39:40;;;;;;;56.85;43.08;;;23.10;54.10;;;;;;4737819;59;21483;-33
2022/10/20 16:44:41;;;;;;;56.83;42.45;;;23.10;54.10;;;;;;4737695;59;20998;-30
2022/10/20 16:49:42;;;;;;;52.92;41.88;;;23.00;54.10;;;;;;4749741;55;21551;-33
2022/10/20 16:54:43;;;;;;;53.28;42.85;;;23.00;54.10;;;;;;4737043;59;21098;-32
2022/10/20 16:59:48;;;;;;;55.58;43.58;;;23.00;54.80;;;;;;4738253;55;21018;-28
2022/10/20 17:04:49;;;;;;;56.60;43.60;;;23.00;54.10;;;;;;4744407;55;21532;-36
2022/10/20 17:09:50;;;;;;;55.55;43.22;;;23.00;54.20;;;;;;4737588;59;21023;-32
2022/10/20 17:14:51;;;;;;;54.90;42.95;;;23.00;54.20;;;;;;4795880;55;21005;-38
2022/10/20 17:19:52;;;;;;;50.22;41.42;;;23.00;54.20;;;;;;4808442;55;21563;-35
2022/10/20 17:24:52;;;;;;;55.53;42.97;;;23.00;54.30;;;;;;4738166;59;21005;-31
2022/10/20 17:29:53;;;;;;;54.22;42.53;;;23.00;54.30;;;;;;4759700;55;21094;-32
2022/10/20 17:34:54;;;;;;;57.42;44.05;;;23.00;54.30;;;;;;4738269;59;21490;-35
2022/10/20 17:39:55;;;;;;;56.08;43.85;;;23.00;54.30;;;;;;4749481;55;21033;-37
2022/10/20 17:44:55;;;;;;;56.88;44.60;;;23.00;54.40;;;;;;4775634;55;21088;-38
2022/10/20 17:49:56;;;;;;;57.60;44.90;;;23.00;54.40;;;;;;4793509;55;21559;-38
2022/10/20 17:54:57;;;;;;;60.45;46.05;;;23.00;54.40;;;;;;4737616;59;21022;-37
2022/10/20 17:59:58;;;;;;;57.70;44.78;;;22.90;54.40;;;;;;4750974;55;21021;-38
2022/10/20 18:04:59;;;;;;;58.70;46.08;;;22.90;54.40;;;;;;4744971;55;21066;-33
2022/10/20 18:09:59;;;;;;;60.40;46.70;;;23.00;54.50;;;;;;4749610;55;21502;-30
2022/10/20 18:15:00;;;;;;;59.85;47.13;;;23.00;54.50;;;;;;4752109;55;21026;-37
2022/10/20 18:20:01;;;;;;;62.22;47.75;;;22.90;54.50;;;;;;4738650;56;21073;-31
2022/10/20 18:25:04;;;;;;;59.45;46.72;;;22.90;54.50;;;;;;4777450;55;21018;-28
2022/10/20 18:30:07;;;;;;;59.28;47.55;;;22.90;54.50;;;;;;4737333;55;21524;-34
2022/10/20 18:35:08;;;;;;;61.40;48.33;;;22.90;54.50;;;;;;4752474;55;21512;-30
2022/10/20 18:40:10;;;;;;;62.53;49.05;;;22.90;54.60;;;;;;4737683;59;20986;-32
2022/10/20 18:45:10;;;;;;;60.10;48.33;;;22.90;54.60;;;;;;4738146;59;20994;-33
2022/10/20 18:50:11;;;;;;;62.97;48.45;;;22.90;54.60;;;;;;4751731;55;21041;-30
2022/10/20 18:55:12;;;;;;;61.55;49.13;;;22.90;54.60;;;;;;4750330;55;21002;-34
2022/10/20 19:00:13;;;;;;;61.83;47.83;;;22.90;54.60;;;;;;4749947;55;21018;-33
2022/10/20 19:05:14;;;;;;;61.65;48.65;;;22.90;54.60;;;;;;4750621;55;21050;-32
2022/10/20 19:10:18;;;;;;;62.78;49.10;;;22.90;54.70;;;;;;4763985;55;21021;-34
2022/10/20 19:15:18;;;;;;;65.20;49.45;;;22.90;54.70;;;;;;4747351;55;21022;-35
2022/10/20 19:20:19;;;;;;;66.00;48.90;;;22.90;54.70;;;;;;4770896;55;21041;-32
2022/10/20 19:25:20;;;;;;;59.92;47.60;;;22.90;54.60;;;;;;4774903;55;21382;-38
2022/10/20 19:30:22;;;;;;;64.80;50.50;;;22.90;54.60;;;;;;4828411;55;21586;-35
2022/10/20 19:35:23;;;;;;;63.63;49.00;;;22.80;54.60;;;;;;4743267;55;21504;-36
2022/10/20 19:40:24;;;;;;;65.07;50.45;;;22.90;54.70;;;;;;4740895;55;21069;-28
2022/10/20 19:45:25;;;;;;;64.90;49.78;;;22.90;54.70;;;;;;4773824;55;21054;-32
2022/10/20 19:50:25;;;;;;;64.57;49.17;;;22.80;54.60;;;;;;4748874;55;21069;-43
2022/10/20 19:55:26;;;;;;;64.53;50.70;;;22.80;54.50;;;;;;4747836;55;21010;-33
2022/10/20 20:00:27;;;;;;;65.97;51.47;;;22.90;54.60;;;;;;4774417;55;21016;-27
2022/10/20 20:05:28;;;;;;;66.68;51.45;;;22.80;54.50;;;;;;4749767;55;21009;-35
2022/10/20 20:10:29;;;;;;;64.78;51.28;;;22.80;54.50;;;;;;4738277;59;21057;-26
2022/10/20 20:15:31;;;;;;;64.18;49.28;;;22.80;54.50;;;;;;4748580;55;21056;-40
2022/10/20 20:20:32;;;;;;;65.03;51.35;;;22.80;54.50;;;;;;4762366;55;21081;-42
2022/10/20 20:25:41;;;;;;;65.70;50.70;;;22.80;54.50;;;;;;4738185;59;21010;-32
2022/10/20 20:30:44;;;;;;;64.85;49.53;;;22.80;54.40;;;;;;4737356;59;21034;-29
2022/10/20 20:35:44;;;;;;;62.55;48.38;;;22.80;54.40;;;;;;4760703;55;21540;-30
2022/10/20 20:40:46;;;;;;;66.37;51.55;;;22.80;54.50;;;;;;4771836;55;20994;-29
2022/10/20 20:45:47;;;;;;;66.68;52.13;;;22.80;54.40;;;;;;4740189;55;21491;-26
2022/10/20 20:50:52;;;;;;;63.00;51.13;;;22.80;54.40;;;;;;4754198;55;21460;-27
2022/10/20 20:55:59;;;;;;;62.30;50.25;;;22.80;54.40;;;;;;4748996;55;21559;-39
2022/10/20 21:01:06;;;;;;;65.97;50.22;;;22.80;54.30;;;;;;4753513;55;21029;-33
2022/10/20 21:06:07;;;;;;;;;;;22.80;54.30;;;;;;4763926;55;20982;-29
2022/10/20 21:11:20;;;;;;;63.70;50.45;;;22.80;54.30;;;;;;4782171;55;20139;-32
2022/10/20 21:16:27;;;;;;;62.33;47.47;;;22.80;54.30;;;;;;4749796;55;21002;-27
2022/10/20 21:21:30;;;;;;;65.22;51.25;;;22.80;54.20;;;;;;4759998;55;21021;-34
2022/10/20 21:26:32;;;;;;;69.03;51.05;;;22.70;54.20;;;;;;4744341;55;21014;-26
2022/10/20 21:31:33;;;;;;;62.38;48.65;;;22.80;54.20;;;;;;4737584;59;21129;-34
2022/10/20 21:36:35;;;;;;;61.63;47.50;;;22.70;54.20;;;;;;4751980;55;21034;-34
2022/10/20 21:41:36;;;;;;;64.15;48.87;;;22.80;54.20;;;;;;4767801;55;21074;-35
2022/10/20 21:46:43;;;;;;;64.43;49.83;;;22.70;54.10;;;;;;4778453;55;21491;-33
2022/10/20 21:51:51;;;;;;;61.53;49.10;;;22.70;54.10;;;;;;4748481;55;21507;-26
2022/10/20 21:56:52;;;;;;;61.42;48.50;;;22.70;54.10;;;;;;4737303;59;21516;-36
2022/10/20 22:01:57;;;;;;;64.12;48.60;;;22.80;54.10;;;;;;4762570;55;21559;-32
2022/10/20 22:06:59;;;;;;;63.78;48.92;;;22.70;54.10;;;;;;4738058;59;21086;-27
2022/10/20 22:12:00;;;;;;;59.00;46.33;;;22.70;54.10;;;;;;4777695;55;21010;-37
2022/10/20 22:17:00;;;;;;;62.65;48.15;;;22.70;54.10;;;;;;4750192;55;21484;-28
2022/10/20 22:22:01;;;;;;;60.78;46.60;;;22.80;54.10;;;;;;4739509;55;21615;-33
2022/10/20 22:27:03;;;;;;;62.22;47.53;;;22.70;54.00;;;;;;4763497;55;21006;-38
2022/10/20 22:32:04;;;;;;;62.22;47.62;;;22.70;54.00;;;;;;4737116;59;21535;-36
2022/10/20 22:37:05;;;;;;;63.55;47.90;;;22.70;54.10;;;;;;4798184;55;20997;-39
2022/10/20 22:42:06;;;;;;;61.70;47.13;;;22.70;54.00;;;;;;4740486;55;21010;-45
2022/10/20 22:47:06;;;;;;;59.30;45.88;;;22.70;54.00;;;;;;4783909;55;21014;-38
2022/10/20 22:52:07;;;;;;;61.42;48.22;;;22.70;54.10;;;;;;4738310;59;21086;-40
2022/10/20 22:57:08;;;;;;;63.05;47.38;;;22.70;54.00;;;;;;4738063;55;21041;-34
2022/10/20 23:02:09;;;;;;;58.83;45.40;;;22.70;54.00;;;;;;4755897;55;21042;-30
2022/10/20 23:07:10;;;;;;;56.42;44.20;;;22.70;54.00;;;;;;4781467;55;21323;-38
2022/10/20 23:12:10;;;;;;;56.70;45.08;;;22.70;54.00;;;;;;4756324;55;21640;-30
2022/10/20 23:17:11;;;;;;;57.97;45.00;;;22.70;54.00;;;;;;4761447;55;21013;-37
2022/10/20 23:22:12;;;;;;;55.10;43.08;;;22.70;54.70;;;;;;4783521;55;21105;-33
2022/10/20 23:27:13;;;;;;;58.50;45.28;;;22.70;54.00;;;;;;4738468;59;21057;-29
2022/10/20 23:32:14;;;;;;;53.90;43.20;;;22.70;54.00;;;;;;4738902;59;21029;-37
2022/10/20 23:37:18;;;;;;;54.85;43.08;;;22.70;54.00;;;;;;4737504;59;21053;-41
2022/10/20 23:42:19;;;;;;;54.88;42.58;;;22.70;54.00;;;;;;4741154;55;21563;-35
2022/10/20 23:47:20;;;;;;;54.78;43.05;;;22.60;53.90;;;;;;4738508;59;21022;-38
2022/10/20 23:52:20;;;;;;;54.08;42.67;;;22.70;54.00;;;;;;4750212;55;21018;-37
2022/10/20 23:57:21;;;;;;;54.67;42.40;;;22.60;53.90;;;;;;4741670;55;21033;-35
